sensor_id;sensor_type;location;lat;lon;timestamp;pressure;altitude;pressure_sealevel;temperature;humidity
59168;BME280;44948;55.046;73.266;2023-03-07T00:00:47;99776.88;;;-8.98;79.53
59168;BME280;44948;55.046;73.266;2023-03-07T00:03:49;99781.09;;;-9.00;79.53
59168;BME280;44948;55.046;73.266;2023-03-07T00:06:54;99780.25;;;-9.14;79.77
59168;BME280;44948;55.046;73.266;2023-03-07T00:09:58;99791.28;;;-9.04;79.64
59168;BME280;44948;55.046;73.266;2023-03-07T00:13:00;99783.63;;;-9.09;79.84
59168;BME280;44948;55.046;73.266;2023-03-07T00:16:10;99770.06;;;-9.23;79.56
59168;BME280;44948;55.046;73.266;2023-03-07T00:19:13;99803.09;;;-9.17;79.97
59168;BME280;44948;55.046;73.266;2023-03-07T00:22:15;99809.88;;;-9.16;79.99
59168;BME280;44948;55.046;73.266;2023-03-07T00:25:29;99817.50;;;-9.13;80.04
59168;BME280;44948;55.046;73.266;2023-03-07T00:28:32;99813.25;;;-9.11;79.52
59168;BME280;44948;55.046;73.266;2023-03-07T00:31:44;99810.72;;;-9.17;79.98
59168;BME280;44948;55.046;73.266;2023-03-07T00:34:58;99827.66;;;-9.22;79.99
59168;BME280;44948;55.046;73.266;2023-03-07T00:38:11;99829.31;;;-9.26;79.70
59168;BME280;44948;55.046;73.266;2023-03-07T00:41:23;99825.94;;;-9.26;79.89
59168;BME280;44948;55.046;73.266;2023-03-07T00:44:31;99831.88;;;-9.27;79.82
59168;BME280;44948;55.046;73.266;2023-03-07T00:47:33;99836.09;;;-9.26;79.70
59168;BME280;44948;55.046;73.266;2023-03-07T00:50:45;99835.22;;;-9.48;79.52
59168;BME280;44948;55.046;73.266;2023-03-07T00:53:48;99836.88;;;-9.59;79.80
59168;BME280;44948;55.046;73.266;2023-03-07T00:56:50;99849.63;;;-9.52;79.95
59168;BME280;44948;55.046;73.266;2023-03-07T01:00:03;99850.47;;;-9.51;79.83
59168;BME280;44948;55.046;73.266;2023-03-07T01:03:16;99843.69;;;-9.55;79.83
59168;BME280;44948;55.046;73.266;2023-03-07T01:06:21;99842.00;;;-9.55;79.90
59168;BME280;44948;55.046;73.266;2023-03-07T01:09:24;99828.41;;;-9.66;79.85
59168;BME280;44948;55.046;73.266;2023-03-07T01:12:30;99826.72;;;-9.70;79.76
59168;BME280;44948;55.046;73.266;2023-03-07T01:15:33;99841.09;;;-9.66;79.58
59168;BME280;44948;55.046;73.266;2023-03-07T01:18:41;99868.19;;;-9.59;79.73
59168;BME280;44948;55.046;73.266;2023-03-07T01:21:50;99874.94;;;-9.61;79.45
59168;BME280;44948;55.046;73.266;2023-03-07T01:24:52;99875.81;;;-9.60;79.53
59168;BME280;44948;55.046;73.266;2023-03-07T01:28:05;99890.16;;;-9.64;79.44
59168;BME280;44948;55.046;73.266;2023-03-07T01:31:07;99890.09;;;-9.79;79.83
59168;BME280;44948;55.046;73.266;2023-03-07T01:34:10;99885.88;;;-9.77;80.11
59168;BME280;44948;55.046;73.266;2023-03-07T01:37:13;99884.19;;;-9.78;79.94
59168;BME280;44948;55.046;73.266;2023-03-07T01:40:16;99846.03;;;-9.93;79.79
59168;BME280;44948;55.046;73.266;2023-03-07T01:43:28;99879.94;;;-9.76;79.67
59168;BME280;44948;55.046;73.266;2023-03-07T01:46:47;99875.78;;;-9.71;79.56
59168;BME280;44948;55.046;73.266;2023-03-07T01:49:50;99899.47;;;-9.70;79.73
59168;BME280;44948;55.046;73.266;2023-03-07T01:52:57;99903.69;;;-9.68;79.60
59168;BME280;44948;55.046;73.266;2023-03-07T01:56:01;99907.94;;;-9.62;79.65
59168;BME280;44948;55.046;73.266;2023-03-07T01:59:07;99921.47;;;-9.62;79.40
59168;BME280;44948;55.046;73.266;2023-03-07T02:02:17;99929.16;;;-9.56;79.35
59168;BME280;44948;55.046;73.266;2023-03-07T02:05:29;99936.78;;;-9.51;79.13
59168;BME280;44948;55.046;73.266;2023-03-07T02:08:45;99938.47;;;-9.45;78.92
59168;BME280;44948;55.046;73.266;2023-03-07T02:11:50;99939.34;;;-9.46;79.23
59168;BME280;44948;55.046;73.266;2023-03-07T02:14:58;99937.66;;;-9.41;78.77
59168;BME280;44948;55.046;73.266;2023-03-07T02:18:06;99941.91;;;-9.39;78.93
59168;BME280;44948;55.046;73.266;2023-03-07T02:21:39;99941.06;;;-9.27;78.35
59168;BME280;44948;55.046;73.266;2023-03-07T02:24:58;99939.44;;;-9.13;78.47
59168;BME280;44948;55.046;73.266;2023-03-07T02:28:04;99939.53;;;-8.81;78.28
59168;BME280;44948;55.046;73.266;2023-03-07T02:31:09;99943.78;;;-8.65;77.58
59168;BME280;44948;55.046;73.266;2023-03-07T02:34:28;99947.19;;;-8.64;77.21
59168;BME280;44948;55.046;73.266;2023-03-07T02:37:43;99939.56;;;-8.61;76.83
59168;BME280;44948;55.046;73.266;2023-03-07T02:40:50;99955.69;;;-8.51;76.85
59168;BME280;44948;55.046;73.266;2023-03-07T02:43:54;99958.25;;;-8.35;76.34
59168;BME280;44948;55.046;73.266;2023-03-07T02:47:02;99962.47;;;-8.17;76.07
59168;BME280;44948;55.046;73.266;2023-03-07T02:50:06;99964.16;;;-7.96;76.01
59168;BME280;44948;55.046;73.266;2023-03-07T02:53:21;99965.84;;;-7.71;75.70
59168;BME280;44948;55.046;73.266;2023-03-07T02:56:24;99969.16;;;-7.41;75.26
59168;BME280;44948;55.046;73.266;2023-03-07T02:59:27;99967.44;;;-7.34;74.29
59168;BME280;44948;55.046;73.266;2023-03-07T03:02:29;99970.84;;;-7.35;74.36
59168;BME280;44948;55.046;73.266;2023-03-07T03:05:37;99968.31;;;-7.37;73.90
59168;BME280;44948;55.046;73.266;2023-03-07T03:08:39;99981.03;;;-7.43;73.72
59168;BME280;44948;55.046;73.266;2023-03-07T03:11:47;99981.00;;;-7.25;73.54
59168;BME280;44948;55.046;73.266;2023-03-07T03:14:52;99993.72;;;-7.16;72.83
59168;BME280;44948;55.046;73.266;2023-03-07T03:17:54;100004.75;;;-7.23;72.69
59168;BME280;44948;55.046;73.266;2023-03-07T03:20:57;99999.63;;;-7.03;72.59
59168;BME280;44948;55.046;73.266;2023-03-07T03:24:09;100014.09;;;-7.16;72.00
59168;BME280;44948;55.046;73.266;2023-03-07T03:27:12;100017.44;;;-6.98;72.47
59168;BME280;44948;55.046;73.266;2023-03-07T03:30:16;100025.81;;;-6.78;71.98
59168;BME280;44948;55.046;73.266;2023-03-07T03:33:18;100035.97;;;-6.72;71.25
59168;BME280;44948;55.046;73.266;2023-03-07T03:36:24;100032.53;;;-6.62;71.58
59168;BME280;44948;55.046;73.266;2023-03-07T03:39:32;100034.16;;;-6.46;71.21
59168;BME280;44948;55.046;73.266;2023-03-07T03:42:35;100027.47;;;-6.68;70.43
59168;BME280;44948;55.046;73.266;2023-03-07T03:45:40;100036.88;;;-6.78;71.01
59168;BME280;44948;55.046;73.266;2023-03-07T03:48:49;100032.66;;;-6.86;70.78
59168;BME280;44948;55.046;73.266;2023-03-07T03:51:53;100047.09;;;-6.81;70.67
59168;BME280;44948;55.046;73.266;2023-03-07T03:55:08;100044.53;;;-6.82;70.70
59168;BME280;44948;55.046;73.266;2023-03-07T03:58:18;100039.28;;;-6.55;70.45
59168;BME280;44948;55.046;73.266;2023-03-07T04:01:26;100025.69;;;-6.51;69.84
59168;BME280;44948;55.046;73.266;2023-03-07T04:04:30;100027.56;;;-6.83;69.91
59168;BME280;44948;55.046;73.266;2023-03-07T04:07:37;100034.31;;;-6.79;70.45
59168;BME280;44948;55.046;73.266;2023-03-07T04:10:47;100033.50;;;-6.83;70.17
59168;BME280;44948;55.046;73.266;2023-03-07T04:13:50;100008.97;;;-7.07;70.07
59168;BME280;44948;55.046;73.266;2023-03-07T04:16:53;100004.72;;;-7.06;70.29
59168;BME280;44948;55.046;73.266;2023-03-07T04:20:07;100016.47;;;-6.78;70.06
59168;BME280;44948;55.046;73.266;2023-03-07T04:23:19;100007.94;;;-6.67;70.09
59168;BME280;44948;55.046;73.266;2023-03-07T04:26:23;99995.84;;;-6.39;69.89
59168;BME280;44948;55.046;73.266;2023-03-07T04:29:25;99994.78;;;-6.11;69.39
59168;BME280;44948;55.046;73.266;2023-03-07T04:32:36;100002.31;;;-5.94;68.87
59168;BME280;44948;55.046;73.266;2023-03-07T04:35:40;100000.41;;;-5.69;68.58
59168;BME280;44948;55.046;73.266;2023-03-07T04:38:43;99997.13;;;-5.82;67.86
59168;BME280;44948;55.046;73.266;2023-03-07T04:41:46;100001.22;;;-5.64;67.71
59168;BME280;44948;55.046;73.266;2023-03-07T04:44:53;99995.97;;;-5.49;67.64
59168;BME280;44948;55.046;73.266;2023-03-07T04:48:06;99987.97;;;-5.20;67.50
59168;BME280;44948;55.046;73.266;2023-03-07T04:51:11;99981.00;;;-5.07;66.58
59168;BME280;44948;55.046;73.266;2023-03-07T04:54:14;99993.88;;;-5.13;66.09
59168;BME280;44948;55.046;73.266;2023-03-07T04:57:27;99992.03;;;-5.02;65.81
59168;BME280;44948;55.046;73.266;2023-03-07T05:00:30;99993.34;;;-4.72;66.04
59168;BME280;44948;55.046;73.266;2023-03-07T05:03:37;100000.31;;;-4.82;65.00
59168;BME280;44948;55.046;73.266;2023-03-07T05:06:40;99989.63;;;-4.48;65.73
59168;BME280;44948;55.046;73.266;2023-03-07T05:09:45;99989.25;;;-4.24;64.12
59168;BME280;44948;55.046;73.266;2023-03-07T05:12:57;99991.47;;;-3.99;63.84
59168;BME280;44948;55.046;73.266;2023-03-07T05:15:59;99994.41;;;-3.73;63.83
59168;BME280;44948;55.046;73.266;2023-03-07T05:19:03;99982.47;;;-3.26;63.04
59168;BME280;44948;55.046;73.266;2023-03-07T05:22:06;99990.00;;;-3.19;61.66
59168;BME280;44948;55.046;73.266;2023-03-07T05:25:09;99984.94;;;-2.78;62.43
59168;BME280;44948;55.046;73.266;2023-03-07T05:28:11;99961.53;;;-2.65;61.26
59168;BME280;44948;55.046;73.266;2023-03-07T05:31:24;99969.47;;;-2.00;60.84
59168;BME280;44948;55.046;73.266;2023-03-07T05:34:32;99961.78;;;-2.03;59.59
59168;BME280;44948;55.046;73.266;2023-03-07T05:37:34;99972.09;;;-1.69;60.05
59168;BME280;44948;55.046;73.266;2023-03-07T05:40:49;99962.53;;;-1.00;58.87
59168;BME280;44948;55.046;73.266;2023-03-07T05:44:01;99948.94;;;-1.05;56.60
59168;BME280;44948;55.046;73.266;2023-03-07T05:47:04;99946.53;;;-1.42;56.65
59168;BME280;44948;55.046;73.266;2023-03-07T05:50:08;99947.75;;;-1.24;57.67
59168;BME280;44948;55.046;73.266;2023-03-07T05:53:18;99963.22;;;-0.37;57.01
59168;BME280;44948;55.046;73.266;2023-03-07T05:56:27;99953.53;;;-0.03;56.53
59168;BME280;44948;55.046;73.266;2023-03-07T05:59:39;99953.34;;;-0.23;55.42
59168;BME280;44948;55.046;73.266;2023-03-07T06:02:42;99952.28;;;-0.18;55.98
59168;BME280;44948;55.046;73.266;2023-03-07T06:05:49;99949.47;;;-0.10;55.77
59168;BME280;44948;55.046;73.266;2023-03-07T06:08:51;99942.34;;;0.48;55.39
59168;BME280;44948;55.046;73.266;2023-03-07T06:11:54;99939.25;;;0.63;54.24
59168;BME280;44948;55.046;73.266;2023-03-07T06:14:56;99945.97;;;0.67;54.30
59168;BME280;44948;55.046;73.266;2023-03-07T06:18:01;99937.47;;;0.89;53.55
59168;BME280;44948;55.046;73.266;2023-03-07T06:21:05;99940.28;;;0.83;53.48
59168;BME280;44948;55.046;73.266;2023-03-07T06:24:13;99931.97;;;0.49;53.46
59168;BME280;44948;55.046;73.266;2023-03-07T06:27:16;99921.88;;;0.43;53.92
59168;BME280;44948;55.046;73.266;2023-03-07T06:30:19;99939.59;;;0.54;53.80
59168;BME280;44948;55.046;73.266;2023-03-07T06:33:21;99944.75;;;0.54;53.87
59168;BME280;44948;55.046;73.266;2023-03-07T06:36:26;99952.22;;;0.37;53.94
59168;BME280;44948;55.046;73.266;2023-03-07T06:39:32;99946.34;;;0.32;54.33
59168;BME280;44948;55.046;73.266;2023-03-07T06:42:36;99954.41;;;0.23;54.25
59168;BME280;44948;55.046;73.266;2023-03-07T06:45:50;99949.66;;;0.10;54.61
59168;BME280;44948;55.046;73.266;2023-03-07T06:48:56;99952.53;;;0.28;54.70
59168;BME280;44948;55.046;73.266;2023-03-07T06:52:10;99941.97;;;0.34;54.31
59168;BME280;44948;55.046;73.266;2023-03-07T06:55:14;99940.19;;;0.11;54.60
59168;BME280;44948;55.046;73.266;2023-03-07T06:58:20;99927.47;;;0.06;54.79
59168;BME280;44948;55.046;73.266;2023-03-07T07:01:22;99946.94;;;0.15;55.06
59168;BME280;44948;55.046;73.266;2023-03-07T07:04:27;99944.50;;;0.10;55.35
59168;BME280;44948;55.046;73.266;2023-03-07T07:07:30;99934.91;;;-0.11;55.55
59168;BME280;44948;55.046;73.266;2023-03-07T07:10:39;99937.28;;;-0.05;55.09
59168;BME280;44948;55.046;73.266;2023-03-07T07:13:41;99938.56;;;-0.18;55.45
59168;BME280;44948;55.046;73.266;2023-03-07T07:16:56;99941.22;;;-0.21;55.34
59168;BME280;44948;55.046;73.266;2023-03-07T07:19:59;99925.59;;;-0.15;55.72
59168;BME280;44948;55.046;73.266;2023-03-07T07:23:01;99927.34;;;-0.17;55.68
59168;BME280;44948;55.046;73.266;2023-03-07T07:26:14;99912.44;;;-0.34;55.63
59168;BME280;44948;55.046;73.266;2023-03-07T07:29:17;99919.09;;;-0.27;55.91
59168;BME280;44948;55.046;73.266;2023-03-07T07:32:22;99909.91;;;-0.35;56.19
59168;BME280;44948;55.046;73.266;2023-03-07T07:35:24;99908.94;;;-0.31;56.16
59168;BME280;44948;55.046;73.266;2023-03-07T07:38:32;99897.28;;;-0.43;56.29
59168;BME280;44948;55.046;73.266;2023-03-07T07:41:35;99897.22;;;-0.42;55.79
59168;BME280;44948;55.046;73.266;2023-03-07T07:44:47;99899.16;;;-0.48;56.63
59168;BME280;44948;55.046;73.266;2023-03-07T07:47:51;99889.78;;;-0.51;56.63
59168;BME280;44948;55.046;73.266;2023-03-07T07:51:02;99875.16;;;-0.50;56.39
59168;BME280;44948;55.046;73.266;2023-03-07T07:54:06;99883.00;;;-0.27;56.37
59168;BME280;44948;55.046;73.266;2023-03-07T07:57:15;99887.78;;;-0.15;55.60
59168;BME280;44948;55.046;73.266;2023-03-07T08:00:18;99874.50;;;-0.04;56.05
59168;BME280;44948;55.046;73.266;2023-03-07T08:03:22;99875.88;;;0.06;55.68
59168;BME280;44948;55.046;73.266;2023-03-07T08:06:26;99875.66;;;0.12;55.75
59168;BME280;44948;55.046;73.266;2023-03-07T08:09:32;99870.72;;;0.06;55.87
59168;BME280;44948;55.046;73.266;2023-03-07T08:12:36;99853.78;;;-0.01;55.81
59168;BME280;44948;55.046;73.266;2023-03-07T08:15:44;99850.22;;;0.03;55.84
59168;BME280;44948;55.046;73.266;2023-03-07T08:18:54;99846.03;;;-0.01;55.93
59168;BME280;44948;55.046;73.266;2023-03-07T08:21:56;99836.72;;;-0.05;55.71
59168;BME280;44948;55.046;73.266;2023-03-07T08:25:06;99826.63;;;-0.11;55.36
59168;BME280;44948;55.046;73.266;2023-03-07T08:28:08;99834.22;;;-0.06;55.92
59168;BME280;44948;55.046;73.266;2023-03-07T08:31:19;99846.25;;;-0.07;55.71
59168;BME280;44948;55.046;73.266;2023-03-07T08:34:27;99830.13;;;-0.12;55.59
59168;BME280;44948;55.046;73.266;2023-03-07T08:37:29;99826.63;;;-0.11;56.04
59168;BME280;44948;55.046;73.266;2023-03-07T08:40:41;99832.81;;;-0.17;56.08
59168;BME280;44948;55.046;73.266;2023-03-07T08:43:48;99825.16;;;-0.18;55.92
59168;BME280;44948;55.046;73.266;2023-03-07T08:46:51;99818.47;;;-0.24;55.72
59168;BME280;44948;55.046;73.266;2023-03-07T08:49:53;99815.59;;;-0.15;55.89
59168;BME280;44948;55.046;73.266;2023-03-07T08:53:01;99798.34;;;-0.13;55.83
59168;BME280;44948;55.046;73.266;2023-03-07T08:56:07;99790.44;;;-0.08;55.61
59168;BME280;44948;55.046;73.266;2023-03-07T08:59:09;99785.28;;;-0.08;55.83
59168;BME280;44948;55.046;73.266;2023-03-07T09:02:11;99774.44;;;-0.18;55.18
59168;BME280;44948;55.046;73.266;2023-03-07T09:05:24;99780.81;;;-0.03;55.50
59168;BME280;44948;55.046;73.266;2023-03-07T09:08:38;99770.13;;;-0.17;55.24
59168;BME280;44948;55.046;73.266;2023-03-07T09:11:45;99774.56;;;0.04;55.98
59168;BME280;44948;55.046;73.266;2023-03-07T09:14:48;99761.53;;;0.07;55.52
59168;BME280;44948;55.046;73.266;2023-03-07T09:17:55;99767.38;;;0.12;55.25
59168;BME280;44948;55.046;73.266;2023-03-07T09:21:02;99712.22;;;-0.07;54.54
59168;BME280;44948;55.046;73.266;2023-03-07T09:24:06;99736.59;;;-0.16;54.07
59168;BME280;44948;55.046;73.266;2023-03-07T09:27:08;99743.97;;;-0.06;54.71
59168;BME280;44948;55.046;73.266;2023-03-07T09:30:15;99724.38;;;-0.11;54.43
59168;BME280;44948;55.046;73.266;2023-03-07T09:33:17;99704.13;;;-0.21;54.57
59168;BME280;44948;55.046;73.266;2023-03-07T09:36:20;99724.81;;;-0.23;54.69
59168;BME280;44948;55.046;73.266;2023-03-07T09:39:27;99727.72;;;-0.32;54.79
59168;BME280;44948;55.046;73.266;2023-03-07T09:46:14;99715.56;;;-0.53;54.52
59168;BME280;44948;55.046;73.266;2023-03-07T09:49:39;99711.09;;;-0.73;55.40
59168;BME280;44948;55.046;73.266;2023-03-07T09:52:45;99701.94;;;-0.57;55.23
59168;BME280;44948;55.046;73.266;2023-03-07T09:55:50;99687.88;;;-0.47;55.71
59168;BME280;44948;55.046;73.266;2023-03-07T10:06:15;99675.06;;;-0.50;54.99
59168;BME280;44948;55.046;73.266;2023-03-07T10:09:22;99665.47;;;-0.45;55.60
59168;BME280;44948;55.046;73.266;2023-03-07T10:16:32;99649.84;;;-0.40;55.33
59168;BME280;44948;55.046;73.266;2023-03-07T10:19:50;99640.25;;;-0.36;55.84
59168;BME280;44948;55.046;73.266;2023-03-07T10:26:36;99620.41;;;-0.58;55.77
59168;BME280;44948;55.046;73.266;2023-03-07T10:29:48;99608.97;;;-0.74;55.98
59168;BME280;44948;55.046;73.266;2023-03-07T10:32:55;99598.06;;;-0.81;56.45
59168;BME280;44948;55.046;73.266;2023-03-07T10:36:06;99585.13;;;-0.79;56.36
59168;BME280;44948;55.046;73.266;2023-03-07T10:42:32;99551.63;;;-1.03;57.24
59168;BME280;44948;55.046;73.266;2023-03-07T10:45:40;99566.34;;;-0.81;57.03
59168;BME280;44948;55.046;73.266;2023-03-07T10:52:41;99538.88;;;-1.06;56.29
59168;BME280;44948;55.046;73.266;2023-03-07T10:55:47;99523.13;;;-1.21;56.92
59168;BME280;44948;55.046;73.266;2023-03-07T10:59:05;99506.47;;;-1.36;57.01
59168;BME280;44948;55.046;73.266;2023-03-07T11:02:33;99499.59;;;-1.36;57.02
59168;BME280;44948;55.046;73.266;2023-03-07T11:05:36;99478.34;;;-1.41;57.69
59168;BME280;44948;55.046;73.266;2023-03-07T11:08:44;99467.06;;;-1.62;58.13
59168;BME280;44948;55.046;73.266;2023-03-07T11:11:55;99455.22;;;-1.66;58.50
59168;BME280;44948;55.046;73.266;2023-03-07T11:15:10;99440.31;;;-1.81;58.70
59168;BME280;44948;55.046;73.266;2023-03-07T11:18:28;99408.97;;;-2.17;59.01
59168;BME280;44948;55.046;73.266;2023-03-07T11:21:39;99413.34;;;-2.21;59.69
59168;BME280;44948;55.046;73.266;2023-03-07T11:24:59;99395.50;;;-2.25;59.58
59168;BME280;44948;55.046;73.266;2023-03-07T11:28:02;99384.78;;;-2.38;60.11
59168;BME280;44948;55.046;73.266;2023-03-07T11:31:26;99371.06;;;-2.37;59.81
59168;BME280;44948;55.046;73.266;2023-03-07T11:34:58;99355.66;;;-2.63;60.01
59168;BME280;44948;55.046;73.266;2023-03-07T11:41:36;99314.97;;;-2.75;60.78
59168;BME280;44948;55.046;73.266;2023-03-07T11:51:02;99302.16;;;-2.75;61.55
59168;BME280;44948;55.046;73.266;2023-03-07T11:54:25;99266.19;;;-3.02;61.99
59168;BME280;44948;55.046;73.266;2023-03-07T11:57:50;99270.66;;;-3.07;62.44
59168;BME280;44948;55.046;73.266;2023-03-07T12:01:21;99248.41;;;-3.33;63.16
59168;BME280;44948;55.046;73.266;2023-03-07T12:05:00;99234.53;;;-3.55;63.93
59168;BME280;44948;55.046;73.266;2023-03-07T12:08:32;99225.34;;;-3.62;64.62
59168;BME280;44948;55.046;73.266;2023-03-07T12:26:03;99145.66;;;-4.40;67.11
59168;BME280;44948;55.046;73.266;2023-03-07T12:29:49;99156.94;;;-4.47;67.44
59168;BME280;44948;55.046;73.266;2023-03-07T12:32:54;99138.19;;;-4.48;68.35
59168;BME280;44948;55.046;73.266;2023-03-07T12:36:07;99140.66;;;-4.45;68.00
59168;BME280;44948;55.046;73.266;2023-03-07T12:56:34;99048.09;;;-4.59;69.21
59168;BME280;44948;55.046;73.266;2023-03-07T12:59:52;99024.03;;;-4.53;68.99
59168;BME280;44948;55.046;73.266;2023-03-07T13:03:00;99013.75;;;-4.50;69.28
59168;BME280;44948;55.046;73.266;2023-03-07T13:06:05;99013.13;;;-4.58;69.27
59168;BME280;44948;55.046;73.266;2023-03-07T13:09:24;99004.69;;;-4.62;69.70
59168;BME280;44948;55.046;73.266;2023-03-07T13:18:48;98971.84;;;-4.76;70.19
59168;BME280;44948;55.046;73.266;2023-03-07T13:21:57;98956.78;;;-4.85;70.43
59168;BME280;44948;55.046;73.266;2023-03-07T13:31:38;98909.25;;;-4.92;70.84
59168;BME280;44948;55.046;73.266;2023-03-07T13:34:43;98888.88;;;-4.95;70.84
59168;BME280;44948;55.046;73.266;2023-03-07T13:37:58;98880.38;;;-4.96;70.62
59168;BME280;44948;55.046;73.266;2023-03-07T13:41:04;98863.13;;;-4.89;70.87
59168;BME280;44948;55.046;73.266;2023-03-07T13:44:38;98871.56;;;-4.87;70.94
59168;BME280;44948;55.046;73.266;2023-03-07T13:47:42;98852.75;;;-4.84;70.63
59168;BME280;44948;55.046;73.266;2023-03-07T13:54:03;98848.53;;;-4.85;71.00
59168;BME280;44948;55.046;73.266;2023-03-07T13:57:17;98847.41;;;-4.77;71.27
59168;BME280;44948;55.046;73.266;2023-03-07T14:00:30;98844.25;;;-4.85;72.58
59168;BME280;44948;55.046;73.266;2023-03-07T14:03:44;98844.16;;;-4.82;74.05
59168;BME280;44948;55.046;73.266;2023-03-07T14:07:18;98828.97;;;-4.88;74.96
59168;BME280;44948;55.046;73.266;2023-03-07T14:10:25;98802.03;;;-4.98;76.15
59168;BME280;44948;55.046;73.266;2023-03-07T14:14:13;98795.91;;;-5.20;78.60
59168;BME280;44948;55.046;73.266;2023-03-07T14:17:23;98772.13;;;-5.22;80.25
59168;BME280;44948;55.046;73.266;2023-03-07T14:27:10;98756.03;;;-5.54;83.54
59168;BME280;44948;55.046;73.266;2023-03-07T14:30:15;98744.03;;;-5.50;83.80
59168;BME280;44948;55.046;73.266;2023-03-07T14:33:17;98733.66;;;-5.46;83.90
59168;BME280;44948;55.046;73.266;2023-03-07T14:36:31;98708.38;;;-5.55;84.67
59168;BME280;44948;55.046;73.266;2023-03-07T14:52:34;98637.31;;;-5.69;87.51
59168;BME280;44948;55.046;73.266;2023-03-07T14:55:38;98615.06;;;-5.65;88.27
59168;BME280;44948;55.046;73.266;2023-03-07T14:58:48;98604.06;;;-5.67;88.57
59168;BME280;44948;55.046;73.266;2023-03-07T15:02:01;98584.44;;;-5.65;88.75
59168;BME280;44948;55.046;73.266;2023-03-07T15:05:23;98555.63;;;-5.70;88.65
59168;BME280;44948;55.046;73.266;2023-03-07T15:08:33;98508.59;;;-5.90;89.11
59168;BME280;44948;55.046;73.266;2023-03-07T15:11:50;98523.53;;;-5.77;89.30
59168;BME280;44948;55.046;73.266;2023-03-07T15:15:02;98502.59;;;-5.89;88.95
59168;BME280;44948;55.046;73.266;2023-03-07T15:18:22;98504.16;;;-5.83;89.42
59168;BME280;44948;55.046;73.266;2023-03-07T15:21:42;98498.50;;;-5.93;89.81
59168;BME280;44948;55.046;73.266;2023-03-07T15:24:51;98481.28;;;-5.88;89.83
59168;BME280;44948;55.046;73.266;2023-03-07T15:28:06;98480.47;;;-5.88;89.61
59168;BME280;44948;55.046;73.266;2023-03-07T15:31:21;98467.09;;;-5.95;89.85
59168;BME280;44948;55.046;73.266;2023-03-07T15:34:24;98452.16;;;-6.07;89.92
59168;BME280;44948;55.046;73.266;2023-03-07T15:37:29;98452.88;;;-6.02;90.25
59168;BME280;44948;55.046;73.266;2023-03-07T15:40:35;98446.94;;;-6.04;90.68
59168;BME280;44948;55.046;73.266;2023-03-07T15:43:42;98418.75;;;-5.99;91.15
59168;BME280;44948;55.046;73.266;2023-03-07T15:46:47;98417.75;;;-5.95;91.28
59168;BME280;44948;55.046;73.266;2023-03-07T15:49:52;98410.97;;;-5.96;91.57
59168;BME280;44948;55.046;73.266;2023-03-07T15:53:01;98372.69;;;-5.96;91.64
59168;BME280;44948;55.046;73.266;2023-03-07T15:56:23;98379.88;;;-5.82;92.02
59168;BME280;44948;55.046;73.266;2023-03-07T15:59:31;98360.00;;;-5.74;92.58
59168;BME280;44948;55.046;73.266;2023-03-07T16:02:39;98345.31;;;-5.68;92.54
59168;BME280;44948;55.046;73.266;2023-03-07T16:05:44;98297.56;;;-5.66;92.56
59168;BME280;44948;55.046;73.266;2023-03-07T16:08:50;98306.31;;;-5.49;92.96
59168;BME280;44948;55.046;73.266;2023-03-07T16:11:52;98270.72;;;-5.54;92.93
59168;BME280;44948;55.046;73.266;2023-03-07T16:14:55;98249.94;;;-5.45;92.78
59168;BME280;44948;55.046;73.266;2023-03-07T16:18:17;98248.09;;;-5.41;92.59
59168;BME280;44948;55.046;73.266;2023-03-07T16:21:24;98227.59;;;-5.40;92.89
59168;BME280;44948;55.046;73.266;2023-03-07T16:24:36;98212.66;;;-5.49;92.78
59168;BME280;44948;55.046;73.266;2023-03-07T16:27:48;98203.66;;;-5.37;93.25
59168;BME280;44948;55.046;73.266;2023-03-07T16:30:51;98192.72;;;-5.41;93.01
59168;BME280;44948;55.046;73.266;2023-03-07T16:33:54;98183.28;;;-5.39;93.25
59168;BME280;44948;55.046;73.266;2023-03-07T16:37:07;98151.97;;;-5.44;93.34
59168;BME280;44948;55.046;73.266;2023-03-07T16:40:22;98135.63;;;-5.40;93.24
59168;BME280;44948;55.046;73.266;2023-03-07T16:43:36;98126.38;;;-5.42;93.19
59168;BME280;44948;55.046;73.266;2023-03-07T16:47:06;98087.81;;;-5.36;93.68
59168;BME280;44948;55.046;73.266;2023-03-07T16:50:15;98075.91;;;-5.37;94.09
59168;BME280;44948;55.046;73.266;2023-03-07T16:53:28;98062.56;;;-5.24;94.35
59168;BME280;44948;55.046;73.266;2023-03-07T16:56:39;98060.84;;;-5.23;94.75
59168;BME280;44948;55.046;73.266;2023-03-07T16:59:45;98067.16;;;-5.11;94.84
59168;BME280;44948;55.046;73.266;2023-03-07T17:02:50;98035.47;;;-5.07;94.96
59168;BME280;44948;55.046;73.266;2023-03-07T17:06:04;98013.78;;;-4.99;95.03
59168;BME280;44948;55.046;73.266;2023-03-07T17:09:08;97980.28;;;-4.93;95.05
59168;BME280;44948;55.046;73.266;2023-03-07T17:12:10;97952.22;;;-4.94;94.56
59168;BME280;44948;55.046;73.266;2023-03-07T17:15:20;97927.97;;;-5.04;94.27
59168;BME280;44948;55.046;73.266;2023-03-07T17:18:23;97926.06;;;-4.99;94.38
59168;BME280;44948;55.046;73.266;2023-03-07T17:21:27;97916.84;;;-5.03;94.27
59168;BME280;44948;55.046;73.266;2023-03-07T17:24:40;97921.34;;;-5.08;94.08
59168;BME280;44948;55.046;73.266;2023-03-07T17:27:56;97928.13;;;-5.07;93.94
59168;BME280;44948;55.046;73.266;2023-03-07T17:31:04;97939.16;;;-5.07;94.05
59168;BME280;44948;55.046;73.266;2023-03-07T17:34:16;97930.47;;;-5.03;93.93
59168;BME280;44948;55.046;73.266;2023-03-07T17:37:21;97909.06;;;-5.00;93.92
59168;BME280;44948;55.046;73.266;2023-03-07T17:40:33;97897.03;;;-4.98;93.62
59168;BME280;44948;55.046;73.266;2023-03-07T17:43:45;97895.44;;;-5.01;93.58
59168;BME280;44948;55.046;73.266;2023-03-07T17:46:47;97850.06;;;-5.14;93.37
59168;BME280;44948;55.046;73.266;2023-03-07T17:49:50;97843.91;;;-5.10;93.66
59168;BME280;44948;55.046;73.266;2023-03-07T17:53:03;97835.50;;;-5.12;93.96
59168;BME280;44948;55.046;73.266;2023-03-07T17:56:10;97826.94;;;-5.11;94.04
59168;BME280;44948;55.046;73.266;2023-03-07T17:59:19;97809.03;;;-5.11;93.88
59168;BME280;44948;55.046;73.266;2023-03-07T18:02:22;97776.88;;;-5.15;94.29
59168;BME280;44948;55.046;73.266;2023-03-07T18:05:29;97763.72;;;-5.08;94.20
59168;BME280;44948;55.046;73.266;2023-03-07T18:08:31;97761.84;;;-5.04;94.69